Time,TemperatureF,DewpointF,PressureIn,WindDirection,WindDirectionDegrees,WindSpeedMPH,WindSpeedGustMPH,Humidity,HourlyPrecipIn,Conditions,Clouds,dailyrainin,SolarRadiationWatts/m^2,SoftwareType,DateUTC
2013-08-22 00:02:00,72.0,33.0,-100.00,ENE,59,22.0,26.0,23,-99.99,,,-99.99,0.000000,,2013-08-22 06:02:00,
2013-08-22 00:42:00,71.0,33.0,-100.00,ENE,57,22.0,25.0,23,-99.99,,,-99.99,0.000000,,2013-08-22 06:42:00,
2013-08-22 01:12:00,71.0,33.0,-100.00,NE,55,23.0,26.0,24,-99.99,,,-99.99,0.000000,,2013-08-22 07:12:00,
2013-08-22 01:42:00,70.0,34.0,-100.00,NE,54,22.0,25.0,26,-99.99,,,-99.99,0.000000,,2013-08-22 07:42:00,
2013-08-22 02:12:00,70.0,35.0,30.27,NE,53,22.0,26.0,27,-99.99,,,-99.99,0.000000,,2013-08-22 08:12:00,
2013-08-22 02:43:00,70.0,35.0,30.26,NE,53,21.0,25.0,27,-99.99,,,-99.99,0.000000,,2013-08-22 08:43:00,
2013-08-22 03:11:00,70.0,37.0,30.26,NE,55,20.0,24.0,29,-99.99,,,-99.99,0.000000,,2013-08-22 09:11:00,
2013-08-22 03:43:00,69.0,38.0,30.26,NE,55,20.0,24.0,31,-99.99,,,-99.99,0.000000,,2013-08-22 09:43:00,
2013-08-22 04:30:00,69.0,41.0,30.25,NE,54,17.0,21.0,36,-99.99,,,-99.99,0.000000,,2013-08-22 10:30:00,
2013-08-22 04:42:00,69.0,41.0,30.25,NE,53,18.0,22.0,35,-99.99,,,-99.99,0.000000,,2013-08-22 10:42:00,
2013-08-22 07:42:00,67.0,44.0,-100.00,ENE,60,12.0,15.0,43,-99.99,,,-99.99,32.080002,,2013-08-22 13:42:00,
2013-08-22 07:52:00,68.0,45.0,-100.00,ENE,61,11.0,13.0,43,-99.99,,,-99.99,83.680000,,2013-08-22 13:52:00,
2013-08-22 08:02:00,68.0,45.0,-100.00,ENE,61,11.0,13.0,43,-99.99,,,-99.99,83.680000,,2013-08-22 14:02:00,
2013-08-22 08:42:00,69.0,44.0,-100.00,East,89,12.0,14.0,40,-99.99,,,-99.99,209.199997,,2013-08-22 14:42:00,
2013-08-22 09:43:00,72.0,46.0,-100.00,ENE,74,12.0,16.0,38,-99.99,,,-99.99,436.529999,,2013-08-22 15:43:00,
2013-08-22 09:55:00,72.0,47.0,-100.00,ENE,75,14.0,17.0,40,-99.99,,,-99.99,363.309998,,2013-08-22 15:55:00,
2013-08-22 10:05:00,72.0,47.0,-100.00,ENE,75,14.0,17.0,40,-99.99,,,-99.99,363.309998,,2013-08-22 16:05:00,
2013-08-22 10:43:00,73.0,48.0,-100.00,East,89,18.0,23.0,41,-99.99,,,-99.99,590.640015,,2013-08-22 16:43:00,
2013-08-22 11:24:00,74.0,48.0,-100.00,East,85,13.0,16.0,39,-99.99,,,-99.99,654.799988,,2013-08-22 17:24:00,
2013-08-22 11:43:00,74.0,48.0,-100.00,East,86,14.0,19.0,39,-99.99,,,-99.99,663.859985,,2013-08-22 17:43:00,
2013-08-22 12:12:00,76.0,44.0,-100.00,East,88,14.0,20.0,32,-99.99,,,-99.99,771.950012,,2013-08-22 18:12:00,
2013-08-22 13:22:00,78.0,44.0,30.28,ENE,68,15.0,27.0,30,-99.99,,,-99.99,845.169983,,2013-08-22 19:22:00,
2013-08-22 13:42:00,78.0,44.0,30.27,East,80,18.0,27.0,30,-99.99,,,-99.99,845.169983,,2013-08-22 19:42:00,
2013-08-22 14:12:00,79.0,45.0,30.26,East,87,18.0,26.0,29,-99.99,,,-99.99,830.520020,,2013-08-22 20:12:00,
2013-08-22 14:42:00,81.0,44.0,30.26,ENE,67,15.0,23.0,27,-99.99,,,-99.99,796.349976,,2013-08-22 20:42:00,
2013-08-22 15:13:00,81.0,42.0,30.24,East,83,17.0,25.0,25,-99.99,,,-99.99,612.260010,,2013-08-22 21:13:00,
2013-08-22 15:44:00,81.0,42.0,30.23,ENE,69,16.0,27.0,25,-99.99,,,-99.99,675.719971,,2013-08-22 21:44:00,
2013-08-22 16:24:00,81.0,40.0,30.21,East,82,19.0,27.0,23,-99.99,,,-99.99,630.390015,,2013-08-22 22:24:00,
2013-08-22 16:42:00,81.0,40.0,30.21,East,88,15.0,25.0,23,-99.99,,,-99.99,96.930000,,2013-08-22 22:42:00,
2013-08-22 16:53:00,81.0,40.0,30.21,ENE,77,12.0,24.0,23,-99.99,,,-99.99,523.000000,,2013-08-22 22:53:00,
2013-08-22 17:11:00,81.0,39.0,30.19,ENE,75,18.0,28.0,22,-99.99,,,-99.99,508.359985,,2013-08-22 23:11:00,
2013-08-22 17:23:00,81.0,38.0,30.19,East,80,20.0,28.0,21,-99.99,,,-99.99,205.710007,,2013-08-22 23:23:00,
2013-08-22 17:42:00,81.0,37.0,30.19,East,80,17.0,25.0,20,-99.99,,,-99.99,153.410004,,2013-08-22 23:42:00,
2013-08-22 17:53:00,80.0,36.0,-100.00,East,98,17.0,24.0,20,-99.99,,,-99.99,78.099998,,2013-08-22 23:53:00,
2013-08-22 18:02:00,80.0,36.0,-100.00,East,98,17.0,24.0,20,-99.99,,,-99.99,78.099998,,2013-08-23 00:02:00,
2013-08-22 18:12:00,80.0,36.0,-100.00,East,98,17.0,24.0,20,-99.99,,,-99.99,78.099998,,2013-08-23 00:12:00,
2013-08-22 18:23:00,80.0,36.0,30.18,East,83,16.0,23.0,20,-99.99,,,-99.99,94.839996,,2013-08-23 00:23:00,
2013-08-22 18:42:00,80.0,35.0,-100.00,East,85,10.0,18.0,20,-99.99,,,-99.99,172.940002,,2013-08-23 00:42:00,
2013-08-22 18:52:00,80.0,34.0,-100.00,East,86,16.0,23.0,19,-99.99,,,-99.99,175.029999,,2013-08-23 00:52:00,
2013-08-22 19:02:00,80.0,34.0,-100.00,East,86,16.0,23.0,19,-99.99,,,-99.99,175.029999,,2013-08-23 01:02:00,
2013-08-22 19:21:00,79.0,35.0,-100.00,East,87,15.0,19.0,20,-99.99,,,-99.99,69.040001,,2013-08-23 01:21:00,
2013-08-22 19:33:00,79.0,35.0,-100.00,East,87,15.0,19.0,20,-99.99,,,-99.99,69.040001,,2013-08-23 01:33:00,
2013-08-22 20:11:00,76.0,34.0,-100.00,East,93,12.0,15.0,21,-99.99,,,-99.99,4.880000,,2013-08-23 02:11:00,
2013-08-22 20:23:00,76.0,34.0,-100.00,East,99,9.0,12.0,21,-99.99,,,-99.99,0.700000,,2013-08-23 02:23:00,
2013-08-22 20:42:00,76.0,33.0,-100.00,ESE,105,10.0,13.0,20,-99.99,,,-99.99,0.000000,,2013-08-23 02:42:00,
2013-08-22 21:55:00,75.0,34.0,-100.00,ENE,75,9.0,11.0,23,-99.99,,,-99.99,0.000000,,2013-08-23 03:55:00,
2013-08-22 22:04:00,75.0,34.0,-100.00,ENE,75,9.0,11.0,23,-99.99,,,-99.99,0.000000,,2013-08-23 04:04:00,
2013-08-22 22:24:00,75.0,35.0,-100.00,ENE,76,10.0,12.0,23,-99.99,,,-99.99,0.000000,,2013-08-23 04:24:00,
2013-08-22 22:43:00,74.0,36.0,-100.00,ENE,72,10.0,13.0,24,-99.99,,,-99.99,0.000000,,2013-08-23 04:43:00,
2013-08-22 22:54:00,74.0,36.0,-100.00,ENE,68,9.0,12.0,24,-99.99,,,-99.99,0.000000,,2013-08-23 04:54:00,
2013-08-22 23:13:00,74.0,36.0,-100.00,ENE,69,11.0,17.0,24,-99.99,,,-99.99,0.000000,,2013-08-23 05:13:00,
2013-08-22 23:22:00,73.0,37.0,-100.00,ENE,64,12.0,17.0,26,-99.99,,,-99.99,0.000000,,2013-08-23 05:22:00,
2013-08-22 23:42:00,72.0,39.0,-100.00,NE,49,14.0,19.0,30,-99.99,,,-99.99,0.000000,,2013-08-23 05:42:00,